createdAt,value
2022-12-08T00:17:37.271Z,20.7
2022-12-08T00:30:37.846Z,25.1
2022-12-08T01:58:58.380Z,10.7
2022-12-08T02:05:13.367Z,10.2
2022-12-08T03:08:23.496Z,10.4
2022-12-08T03:14:27.085Z,11.3
2022-12-08T03:20:17.079Z,11.5
2022-12-08T03:26:13.212Z,13.6
2022-12-08T03:32:03.753Z,14.3
2022-12-08T03:37:55.439Z,13.7
2022-12-08T03:43:49.145Z,11
2022-12-08T03:49:46.390Z,11.7
2022-12-08T03:55:38.148Z,11.1
2022-12-08T04:01:30.628Z,11.8
2022-12-08T04:07:21.410Z,12.3
2022-12-08T04:13:11.856Z,11.1
2022-12-08T04:19:03.359Z,11.2
2022-12-08T04:24:53.728Z,10.7
2022-12-08T04:30:49.573Z,10.7
2022-12-08T04:36:40.630Z,10.8
2022-12-08T04:42:30.884Z,10.9
2022-12-08T04:48:28.765Z,10.5
2022-12-08T04:54:22.101Z,11.8
2022-12-08T05:00:23.747Z,12.6
2022-12-08T05:06:16.712Z,11.1
2022-12-08T05:12:07.750Z,13.6
2022-12-08T05:18:00.511Z,12.2
2022-12-08T05:23:54.353Z,11.7
2022-12-08T05:29:48.582Z,11.5
2022-12-08T05:35:44.152Z,12.1
2022-12-08T05:41:40.130Z,11.5
2022-12-08T05:47:38.156Z,12
2022-12-08T05:53:28.133Z,12.8
2022-12-08T05:59:19.783Z,12.3
2022-12-08T06:05:11.864Z,12
2022-12-08T06:11:04.982Z,12.4
2022-12-08T06:16:57.443Z,12.6
2022-12-08T06:22:48.309Z,12.4
2022-12-08T06:28:41.362Z,13.8
2022-12-08T06:34:33.880Z,14.9
2022-12-08T06:40:27.515Z,14.5
2022-12-08T06:46:28.727Z,12.9
2022-12-08T06:52:22.418Z,11.2
2022-12-08T06:58:54.592Z,10.1
2022-12-08T07:04:44.314Z,9.1
2022-12-08T07:10:44.848Z,8.9
2022-12-08T07:16:36.642Z,8.8
2022-12-08T07:22:28.825Z,8.4
2022-12-08T07:28:19.710Z,8.6
2022-12-08T07:34:12.705Z,9.8
2022-12-08T07:40:04.472Z,9.9
2022-12-08T07:45:56.087Z,10.6
2022-12-08T07:51:46.576Z,10.3
2022-12-08T07:57:38.614Z,10.4
2022-12-08T08:03:30.329Z,11
2022-12-08T08:09:23.660Z,11.3
2022-12-08T08:15:14.646Z,10.3
2022-12-08T08:21:52.830Z,10.9
2022-12-08T08:27:40.655Z,12.6
2022-12-08T08:33:32.586Z,10.9
2022-12-08T08:39:24.440Z,11.4
2022-12-08T08:45:15.766Z,10.5
2022-12-08T08:51:09.820Z,9.5
2022-12-08T08:57:00.104Z,8.5
2022-12-08T09:02:53.187Z,9
2022-12-08T09:08:43.588Z,8.9
2022-12-08T09:15:47.066Z,8
2022-12-08T09:22:19.672Z,8.6
2022-12-08T09:28:22.723Z,8.3
2022-12-08T09:34:13.472Z,10.6
2022-12-08T09:46:17.978Z,11.1
2022-12-08T09:52:09.857Z,11.1
2022-12-08T09:58:03.959Z,10.9
2022-12-08T10:03:55.527Z,11.1
2022-12-08T10:09:47.069Z,10.5
2022-12-08T10:15:38.664Z,10.9
2022-12-08T10:21:30.620Z,11.5
2022-12-08T10:27:24.477Z,11.7
2022-12-08T10:33:15.972Z,12
2022-12-08T10:39:06.955Z,12.4
2022-12-08T10:44:59.043Z,10.2
2022-12-08T10:50:51.884Z,9.6
2022-12-08T10:56:42.751Z,10
2022-12-08T11:02:34.356Z,10.4
2022-12-08T11:08:25.801Z,10.7
2022-12-08T11:14:16.403Z,11
2022-12-08T11:20:08.373Z,9.6
2022-12-08T11:26:04.082Z,10.7
2022-12-08T11:31:55.912Z,10.5
2022-12-08T11:37:44.616Z,9.2
2022-12-08T11:43:36.669Z,7.1
2022-12-08T11:49:26.209Z,7.1
2022-12-08T11:55:16.062Z,6.8
2022-12-08T12:07:10.832Z,6.7
2022-12-08T12:13:02.807Z,6.6
2022-12-08T12:18:54.739Z,6
2022-12-08T12:24:45.647Z,5.3
2022-12-08T12:30:39.413Z,5
2022-12-08T12:36:44.702Z,5.2
2022-12-08T12:43:01.336Z,4.7
2022-12-08T12:49:05.280Z,5.4
2022-12-08T12:54:59.019Z,5.6
2022-12-08T13:00:51.551Z,5.6
2022-12-08T13:06:57.317Z,6.2
2022-12-08T13:12:51.108Z,6.3
2022-12-08T13:18:47.098Z,5.7
2022-12-08T13:24:38.886Z,4.1
2022-12-08T13:32:12.172Z,3.7
2022-12-08T13:38:06.175Z,3.4
2022-12-08T13:47:17.089Z,3.4
2022-12-08T14:02:22.776Z,3.5
2022-12-08T14:08:50.644Z,4.3
2022-12-08T14:15:37.092Z,3.7
2022-12-08T14:21:38.672Z,3.9
2022-12-08T14:27:35.535Z,3.3
2022-12-08T14:33:33.713Z,3.6
2022-12-08T14:39:36.886Z,4.4
2022-12-08T14:45:28.927Z,4.9
2022-12-08T14:51:32.669Z,4.6
2022-12-08T14:57:28.853Z,4.1
2022-12-08T15:03:22.863Z,4.5
2022-12-08T15:09:28.925Z,4.7
2022-12-08T15:15:19.260Z,4.6
2022-12-08T15:21:16.919Z,4.9
2022-12-08T15:27:17.744Z,5.1
2022-12-08T15:33:11.535Z,6.8
2022-12-08T15:39:08.090Z,6.6
2022-12-08T15:45:09.954Z,5.6
2022-12-08T15:51:04.020Z,5.1
2022-12-08T15:59:06.368Z,4.5
2022-12-08T16:07:21.166Z,4.8
2022-12-08T16:23:46.699Z,4.1
2022-12-08T16:29:41.702Z,3.9
2022-12-08T16:35:40.377Z,4
2022-12-08T16:41:41.015Z,3.8
2022-12-08T16:47:30.471Z,3.4
2022-12-08T16:53:21.879Z,3.4
2022-12-08T16:59:13.414Z,4.5
2022-12-08T17:05:10.257Z,6.1
2022-12-08T17:11:00.766Z,7.7
2022-12-08T17:16:52.981Z,6.9
2022-12-08T17:23:00.523Z,7.8
2022-12-08T17:29:29.039Z,8.2
2022-12-08T17:35:27.952Z,11
2022-12-08T17:41:17.271Z,15.8
2022-12-08T17:47:08.027Z,17
2022-12-08T17:53:01.463Z,29.2
2022-12-08T18:05:17.829Z,29.9
2022-12-08T18:11:09.042Z,14.1
2022-12-08T18:17:05.590Z,13.2
2022-12-08T18:23:06.954Z,15.4
2022-12-08T18:28:58.680Z,11.7
2022-12-08T18:35:00.842Z,11.8
2022-12-08T18:40:51.059Z,11.6
2022-12-08T18:46:45.778Z,11.4
2022-12-08T18:52:40.164Z,9.3
2022-12-08T18:58:31.167Z,10.2
2022-12-08T19:04:57.529Z,11.6
2022-12-08T19:10:45.721Z,11.3
2022-12-08T19:16:36.938Z,10.9
2022-12-08T19:22:26.486Z,11.9
2022-12-08T19:28:15.934Z,14
2022-12-08T19:34:07.734Z,11.5
2022-12-08T19:40:02.514Z,13.3
2022-12-08T19:45:57.885Z,15.6
2022-12-08T19:51:57.134Z,16.1
2022-12-08T19:57:50.607Z,18.2
2022-12-08T20:05:15.956Z,20.2
2022-12-08T20:11:04.255Z,17.4
2022-12-08T20:17:02.299Z,14.6
2022-12-08T20:22:58.350Z,16.2
2022-12-08T20:28:48.416Z,15.3
2022-12-08T20:34:50.550Z,17.9
2022-12-08T20:40:40.392Z,21
2022-12-08T20:46:35.576Z,23.4
2022-12-08T20:52:31.699Z,19.9
2022-12-08T20:58:44.310Z,19.2
2022-12-08T21:05:15.685Z,18.6
2022-12-08T21:11:08.582Z,16.7
2022-12-08T21:17:13.709Z,17.8
2022-12-08T21:23:13.806Z,15.7
2022-12-08T21:29:04.354Z,15.2
2022-12-08T21:34:55.160Z,18.9
2022-12-08T21:40:48.533Z,16.5
2022-12-08T21:46:39.639Z,14.2
2022-12-08T21:52:45.721Z,17.2
2022-12-08T21:58:40.250Z,14.6
2022-12-08T22:04:32.182Z,15.7
2022-12-08T22:10:24.699Z,18.4
2022-12-08T22:16:42.955Z,19.6
2022-12-08T22:22:35.814Z,19.8
2022-12-08T22:28:31.428Z,19.4
2022-12-08T22:34:32.394Z,17.4
2022-12-08T22:40:27.065Z,19.1
2022-12-08T22:46:47.922Z,17
2022-12-08T22:52:59.022Z,15.9
2022-12-08T23:05:38.849Z,14.6
2022-12-08T23:11:34.610Z,14.2
2022-12-08T23:37:13.086Z,14.1
2022-12-08T23:43:03.939Z,14
2022-12-08T23:49:10.003Z,13.8
